Time;durP1;ratioP1;P1;durP2;ratioP2;P2;SDS_P1;SDS_P2;PMS_P1;PMS_P2;Temp;Humidity;BMP_temperature;BMP_pressure;BME280_temperature;BME280_humidity;BME280_pressure;Samples;Min_cycle;Max_cycle;Signal;HPM_P1;HPM_P2
2022/09/24 00:01:27;;;;;;;30.02;24.63;;;;;;;13.42;98.58;101339.13;5072884;28;20045;-86
2022/09/24 00:04:05;;;;;;;31.33;24.27;;;;;;;13.41;98.65;101337.63;5057197;28;20045;-86
2022/09/24 00:06:40;;;;;;;31.70;24.30;;;;;;;13.41;98.54;101336.88;5082475;28;20045;-84
2022/09/24 00:09:08;;;;;;;31.58;24.10;;;;;;;13.40;98.58;101333.47;5080900;28;20045;-84
2022/09/24 00:11:34;;;;;;;29.67;22.25;;;;;;;13.39;98.75;101337.31;5077403;28;20045;-84
2022/09/24 00:14:01;;;;;;;33.40;22.23;;;;;;;13.38;98.64;101333.16;5058736;28;20052;-82
2022/09/24 00:16:30;;;;;;;28.95;22.50;;;;;;;13.36;98.48;101335.53;5071816;28;20528;-82
2022/09/24 00:18:58;;;;;;;30.42;22.40;;;;;;;13.37;98.74;101331.69;5054689;28;20045;-82
2022/09/24 00:21:27;;;;;;;26.08;21.23;;;;;;;13.37;98.77;101331.69;5072202;28;20037;-81
2022/09/24 00:23:56;;;;;;;26.67;20.45;;;;;;;13.35;98.87;101328.69;5070750;28;20544;-80
2022/09/24 00:29:10;;;;;;;27.85;20.65;;;;;;;13.35;99.17;101334.06;5071838;28;20051;-81
2022/09/24 00:31:37;;;;;;;25.33;19.70;;;;;;;13.33;99.13;101323.78;5071811;28;20117;-81
2022/09/24 00:34:04;;;;;;;25.05;19.10;;;;;;;13.33;99.15;101325.72;5072167;28;20098;-81
2022/09/24 00:36:31;;;;;;;24.02;18.58;;;;;;;13.30;98.85;101324.69;5071955;28;20077;-80
2022/09/24 00:38:59;;;;;;;24.10;17.95;;;;;;;13.28;99.18;101315.63;5072552;28;20505;-80
2022/09/24 00:41:29;;;;;;;22.38;18.27;;;;;;;13.26;99.25;101316.06;5071507;28;20049;-80
2022/09/24 00:43:56;;;;;;;21.20;18.73;;;;;;;13.24;99.42;101315.75;5071885;28;20045;-80
2022/09/24 00:46:28;;;;;;;21.27;17.70;;;;;;;13.27;99.31;101309.53;5071830;28;20480;-81
2022/09/24 00:49:03;;;;;;;20.77;17.25;;;;;;;13.28;98.94;101315.63;5072068;28;20041;-80
2022/09/24 00:51:31;;;;;;;21.27;18.02;;;;;;;13.26;99.41;101312.63;5072112;28;20107;-80
2022/09/24 00:54:02;;;;;;;19.45;17.20;;;;;;;13.25;99.76;101305.81;5070562;28;20524;-80
2022/09/24 00:56:33;;;;;;;21.23;16.95;;;;;;;13.22;99.63;101307.44;5052018;28;20075;-80
2022/09/24 00:59:01;;;;;;;23.38;18.33;;;;;;;13.21;99.64;101305.19;5069829;28;20132;-80
2022/09/24 01:01:30;;;;;;;19.30;16.35;;;;;;;13.19;99.70;101303.00;5071777;28;20041;-79
2022/09/24 01:03:59;;;;;;;19.55;16.67;;;;;;;13.18;99.91;101298.09;5071395;28;20037;-79
2022/09/24 01:06:25;;;;;;;20.25;16.00;;;;;;;13.17;99.73;101300.03;5070241;28;20049;-80
2022/09/24 01:08:54;;;;;;;20.83;17.20;;;;;;;13.15;100.00;101294.34;5070856;28;20513;-80
2022/09/24 01:11:28;;;;;;;18.00;15.50;;;;;;;13.14;99.97;101292.88;5075003;28;20568;-79
2022/09/24 01:14:10;;;;;;;19.60;16.65;;;;;;;13.14;99.84;101286.78;5074791;28;20055;-79
2022/09/24 01:17:01;;;;;;;19.00;16.25;;;;;;;13.16;99.87;101287.09;5073963;28;20041;-80
2022/09/24 01:19:46;;;;;;;23.90;17.52;;;;;;;13.14;100.00;101282.16;5075169;28;20073;-80
2022/09/24 01:22:38;;;;;;;19.45;16.08;;;;;;;13.14;99.84;101279.50;5073812;28;20565;-80
2022/09/24 01:25:32;;;;;;;21.85;16.52;;;;;;;13.13;99.85;101285.28;5074818;28;20059;-79
2022/09/24 01:28:12;;;;;;;20.90;16.65;;;;;;;13.13;100.00;101279.94;5075088;28;20514;-80
2022/09/24 01:30:41;;;;;;;21.92;17.35;;;;;;;13.11;100.00;101283.06;5075094;28;20494;-79
2022/09/24 01:33:15;;;;;;;22.05;17.67;;;;;;;13.11;100.00;101271.63;5056699;28;20049;-79
2022/09/24 01:35:49;;;;;;;23.88;18.42;;;;;;;13.09;100.00;101274.00;5074512;28;20076;-80
2022/09/24 01:38:23;;;;;;;24.00;18.40;;;;;;;13.09;100.00;101274.72;5075085;28;20120;-80
2022/09/24 01:40:52;;;;;;;25.58;19.42;;;;;;;13.06;100.00;101269.53;5074953;28;20049;-80
2022/09/24 01:43:23;;;;;;;24.80;19.05;;;;;;;13.05;100.00;101268.78;5074156;28;20095;-80
2022/09/24 01:45:51;;;;;;;25.85;19.77;;;;;;;13.00;100.00;101272.78;5074853;28;20081;-79
2022/09/24 01:48:20;;;;;;;27.50;20.27;;;;;;;12.97;100.00;101271.00;5074696;28;20137;-80
2022/09/24 01:50:56;;;;;;;29.48;20.02;;;;;;;13.00;100.00;101262.09;5074647;28;20084;-81
2022/09/24 01:53:30;;;;;;;25.95;19.40;;;;;;;13.02;100.00;101261.66;5074789;28;20723;-80
2022/09/24 01:56:04;;;;;;;26.42;20.23;;;;;;;13.00;100.00;101262.09;5056235;28;20084;-80
2022/09/24 01:58:45;;;;;;;27.90;20.15;;;;;;;12.99;100.00;101260.59;5072864;28;20199;-80
2022/09/24 02:01:18;;;;;;;27.90;20.50;;;;;;;13.00;100.00;101253.34;5074708;28;20107;-80
2022/09/24 02:03:51;;;;;;;30.52;21.13;;;;;;;12.98;100.00;101253.03;5056680;28;20045;-80
2022/09/24 02:06:25;;;;;;;28.75;20.67;;;;;;;12.97;100.00;101257.63;5074532;28;20049;-79
2022/09/24 02:08:51;;;;;;;27.67;20.50;;;;;;;12.94;100.00;101250.50;5074279;28;20045;-80
2022/09/24 02:11:22;;;;;;;30.60;21.25;;;;;;;12.92;100.00;101247.53;5073876;28;20131;-80
2022/09/24 02:14:13;;;;;;;33.55;22.77;;;;;;;12.94;100.00;101244.41;5074616;28;20484;-80
2022/09/24 02:16:49;;;;;;;33.78;23.20;;;;;;;12.92;100.00;101249.47;5074532;28;20104;-80
2022/09/24 02:19:24;;;;;;;30.85;22.10;;;;;;;12.89;100.00;101245.00;5074211;28;20107;-79
2022/09/24 02:21:51;;;;;;;29.13;22.20;;;;;;;12.88;100.00;101240.84;5074000;28;20120;-79
2022/09/24 02:24:23;;;;;;;36.60;23.20;;;;;;;12.85;100.00;101239.78;5073392;28;20143;-79
2022/09/24 02:26:50;;;;;;;31.95;22.70;;;;;;;12.82;100.00;101235.31;5073778;28;20172;-79
2022/09/24 02:29:17;;;;;;;32.25;23.27;;;;;;;12.81;100.00;101238.44;5073963;28;20048;-79
2022/09/24 02:31:47;;;;;;;32.83;23.00;;;;;;;12.82;100.00;101238.00;5074163;28;20088;-79
2022/09/24 02:34:24;;;;;;;36.70;24.23;;;;;;;12.83;100.00;101231.47;5074209;28;20486;-79
2022/09/24 02:36:54;;;;;;;31.45;22.90;;;;;;;12.82;100.00;101231.91;5072647;28;20107;-79
2022/09/24 02:39:21;;;;;;;31.17;22.38;;;;;;;12.80;100.00;101228.94;5073378;28;20049;-79
2022/09/24 02:41:48;;;;;;;33.75;22.98;;;;;;;12.77;100.00;101230.59;5073942;28;20128;-79
2022/09/24 02:44:16;;;;;;;32.67;22.05;;;;;;;12.76;100.00;101231.03;5073472;28;20051;-79
2022/09/24 02:46:44;;;;;;;30.98;22.65;;;;;;;12.74;100.00;101234.16;5073984;28;20104;-79
2022/09/24 02:49:12;;;;;;;30.52;22.77;;;;;;;12.73;100.00;101230.00;5073604;28;20084;-79
2022/09/24 02:51:38;;;;;;;34.05;21.90;;;;;;;12.71;100.00;101229.69;5073621;28;20109;-80
2022/09/24 02:54:05;;;;;;;35.28;22.45;;;;;;;12.69;100.00;101222.09;5073193;28;20505;-79
2022/09/24 02:56:32;;;;;;;31.73;21.95;;;;;;;12.71;100.00;101221.66;5072052;28;20041;-79
2022/09/24 02:59:01;;;;;;;31.50;21.95;;;;;;;12.69;100.00;101224.78;5073753;28;20139;-79
2022/09/24 03:01:28;;;;;;;30.77;21.23;;;;;;;12.68;100.00;101225.22;5073456;28;20049;-79
2022/09/24 03:03:56;;;;;;;29.98;20.80;;;;;;;12.65;100.00;101226.84;5073476;28;20052;-80
2022/09/24 03:06:26;;;;;;;31.83;22.40;;;;;;;12.64;100.00;101222.69;5073363;28;20128;-79
2022/09/24 03:08:53;;;;;;;30.52;20.95;;;;;;;12.65;100.00;101228.78;5072965;28;20255;-79
2022/09/24 03:11:21;;;;;;;31.23;20.73;;;;;;;12.61;100.00;101220.16;5073149;28;20045;-80
2022/09/24 03:13:48;;;;;;;30.70;21.50;;;;;;;12.60;100.00;101218.66;5073375;28;20048;-79
2022/09/24 03:16:16;;;;;;;30.65;21.05;;;;;;;12.60;100.00;101216.00;5073438;28;20224;-80
2022/09/24 03:18:43;;;;;;;29.48;21.77;;;;;;;12.61;100.00;101214.81;5073445;28;20091;-79
2022/09/24 03:21:11;;;;;;;28.38;19.95;;;;;;;12.59;100.00;101211.84;5073260;28;20045;-79
2022/09/24 03:23:39;;;;;;;30.90;21.70;;;;;;;12.60;100.00;101214.06;5072127;28;20059;-79
2022/09/24 03:26:06;;;;;;;30.08;20.95;;;;;;;12.60;100.00;101210.66;5054415;28;20051;-79
2022/09/24 03:28:33;;;;;;;28.33;20.77;;;;;;;12.55;100.00;101211.97;5071799;28;20041;-79
2022/09/24 03:30:59;;;;;;;29.20;20.50;;;;;;;12.55;100.00;101213.91;5073416;28;20047;-79
2022/09/24 03:33:32;;;;;;;28.52;20.77;;;;;;;12.54;100.00;101210.50;5071003;28;20045;-80
2022/09/24 03:36:07;;;;;;;30.27;21.08;;;;;;;12.52;100.00;101214.78;5071976;28;20081;-80
2022/09/24 03:38:35;;;;;;;29.52;20.45;;;;;;;12.50;100.00;101204.53;5072333;28;20049;-80
2022/09/24 03:41:02;;;;;;;30.98;21.48;;;;;;;12.49;100.00;101202.31;5071414;28;20450;-80
2022/09/24 03:43:30;;;;;;;29.92;21.65;;;;;;;12.49;100.00;101210.31;5071525;28;20516;-80
2022/09/24 03:45:57;;;;;;;29.02;20.80;;;;;;;12.49;100.00;101204.97;5071857;28;20076;-80
2022/09/24 03:48:24;;;;;;;30.75;21.48;;;;;;;12.47;100.00;101210.75;5071525;28;20671;-81
2022/09/24 03:50:52;;;;;;;33.17;22.55;;;;;;;12.49;100.00;101211.06;5071295;28;20045;-80
2022/09/24 03:53:19;;;;;;;29.73;21.90;;;;;;;12.47;100.00;101208.09;5072312;28;20120;-81
2022/09/24 03:55:56;;;;;;;31.25;22.75;;;;;;;12.46;100.00;101203.94;5072564;28;20112;-81
2022/09/24 03:58:23;;;;;;;30.80;21.55;;;;;;;12.45;100.00;101202.44;5071608;28;20052;-81
2022/09/24 04:00:52;;;;;;;29.63;21.88;;;;;;;12.44;100.00;101206.31;5072665;28;20851;-81
2022/09/24 04:03:20;;;;;;;31.02;21.85;;;;;;;12.45;100.00;101201.69;5072555;28;20452;-81
2022/09/24 04:05:47;;;;;;;32.03;22.95;;;;;;;12.46;100.00;101201.25;5072256;28;20052;-80
2022/09/24 04:08:14;;;;;;;29.35;21.88;;;;;;;12.51;100.00;101202.63;5070904;28;20045;-79
2022/09/24 04:10:43;;;;;;;31.00;21.65;;;;;;;12.51;100.00;101199.94;5072402;28;20124;-79
2022/09/24 04:13:10;;;;;;;30.75;21.85;;;;;;;12.50;100.00;101198.47;5072255;28;20136;-79
2022/09/24 04:15:37;;;;;;;30.90;22.42;;;;;;;12.49;100.00;101204.97;5072032;28;20041;-80
2022/09/24 04:18:03;;;;;;;29.27;21.33;;;;;;;12.48;100.00;101195.47;5072510;28;20096;-79
2022/09/24 04:20:30;;;;;;;28.50;20.90;;;;;;;12.48;100.00;101192.81;5072579;28;20076;-79
2022/09/24 04:22:58;;;;;;;31.02;22.27;;;;;;;12.45;100.00;101191.75;5070793;28;20569;-79
2022/09/24 04:25:29;;;;;;;30.17;21.85;;;;;;;12.43;100.00;101191.47;5071454;28;20127;-79
2022/09/24 04:27:58;;;;;;;28.92;21.27;;;;;;;12.45;100.00;101193.69;5072606;28;20049;-79
2022/09/24 04:30:26;;;;;;;31.27;21.27;;;;;;;12.44;100.00;101195.63;5070805;28;20099;-79
2022/09/24 04:32:54;;;;;;;27.02;20.65;;;;;;;12.46;100.00;101189.84;5054386;28;20044;-80
2022/09/24 04:35:22;;;;;;;28.15;20.58;;;;;;;12.44;100.00;101195.63;5071555;28;20544;-80
2022/09/24 04:37:48;;;;;;;29.67;21.15;;;;;;;12.46;100.00;101195.19;5072128;28;20053;-80
2022/09/24 04:40:15;;;;;;;27.83;20.58;;;;;;;12.47;100.00;101188.66;5072063;28;20129;-79
2022/09/24 04:42:45;;;;;;;30.05;20.55;;;;;;;12.46;100.00;101189.84;5072130;28;20488;-79
2022/09/24 04:45:14;;;;;;;27.85;20.70;;;;;;;12.45;100.00;101188.34;5053672;28;20638;-79
2022/09/24 04:47:40;;;;;;;26.13;19.95;;;;;;;12.48;100.00;101190.16;5071868;28;20517;-79
2022/09/24 04:50:10;;;;;;;27.88;20.65;;;;;;;12.48;100.00;101190.88;5071678;28;20041;-79
2022/09/24 04:52:38;;;;;;;25.50;19.23;;;;;;;12.49;100.00;101196.97;5071609;28;20124;-80
2022/09/24 04:55:05;;;;;;;28.75;20.15;;;;;;;12.49;100.00;101194.31;5071824;28;20068;-79
2022/09/24 04:57:35;;;;;;;25.98;19.83;;;;;;;12.50;100.00;101193.13;5053401;28;20053;-80
2022/09/24 05:00:07;;;;;;;25.98;19.05;;;;;;;12.49;100.00;101196.97;5071896;28;20141;-80
2022/09/24 05:02:34;;;;;;;29.88;19.27;;;;;;;12.49;100.00;101188.97;5071958;28;20445;-80
2022/09/24 05:05:00;;;;;;;26.77;19.95;;;;;;;12.50;100.00;101196.53;5070333;28;20055;-80
2022/09/24 05:07:27;;;;;;;29.98;20.48;;;;;;;12.52;100.00;101196.84;5071785;28;20128;-80
2022/09/24 05:09:53;;;;;;;27.10;20.55;;;;;;;12.54;100.00;101201.72;5070536;28;20574;-80
2022/09/24 05:12:20;;;;;;;26.73;20.55;;;;;;;12.52;100.00;101196.84;5071554;28;20483;-80
2022/09/24 05:14:47;;;;;;;26.23;19.90;;;;;;;12.54;100.00;101205.16;5071629;28;20140;-80
2022/09/24 05:17:14;;;;;;;24.83;20.30;;;;;;;12.54;100.00;101197.13;5071706;28;20531;-80
2022/09/24 05:19:40;;;;;;;26.88;19.60;;;;;;;12.55;100.00;101205.88;5052513;28;20531;-80
2022/09/24 05:22:07;;;;;;;25.83;18.85;;;;;;;12.57;100.00;101203.53;5071213;28;20072;-80
2022/09/24 05:24:33;;;;;;;24.70;18.92;;;;;;;12.54;100.00;101204.41;5070570;28;20486;-80
2022/09/24 05:27:09;;;;;;;24.05;18.95;;;;;;;12.55;100.00;101201.28;5071659;28;20124;-81
2022/09/24 05:29:41;;;;;;;24.85;19.27;;;;;;;12.57;100.00;101201.59;5069782;28;20056;-81
2022/09/24 05:32:14;;;;;;;26.33;19.80;;;;;;;12.61;100.00;101198.78;5071900;28;20560;-81
2022/09/24 05:34:42;;;;;;;26.35;19.10;;;;;;;12.61;100.00;101207.53;5070819;28;20099;-81
2022/09/24 05:37:09;;;;;;;28.20;20.35;;;;;;;12.61;100.00;101214.81;5069956;28;20049;-80
2022/09/24 05:39:35;;;;;;;24.58;19.52;;;;;;;12.60;100.00;101211.41;5071144;28;20053;-81
2022/09/24 05:42:03;;;;;;;23.40;19.42;;;;;;;12.58;100.00;101207.69;5071505;28;20136;-81
2022/09/24 05:44:30;;;;;;;26.48;19.73;;;;;;;12.57;100.00;101206.94;5071218;28;20053;-81
2022/09/24 05:46:57;;;;;;;22.58;18.10;;;;;;;12.59;100.00;101211.84;5071451;28;20041;-80
2022/09/24 05:49:24;;;;;;;25.23;19.10;;;;;;;12.62;100.00;101213.63;5070569;28;20037;-80
2022/09/24 05:51:50;;;;;;;22.83;19.00;;;;;;;12.64;100.00;101213.94;5070757;28;20484;-80
2022/09/24 05:54:18;;;;;;;24.60;18.35;;;;;;;12.66;100.00;101220.31;5053057;28;20495;-80
2022/09/24 05:56:45;;;;;;;25.27;18.83;;;;;;;12.66;100.00;101224.91;5074055;28;20072;-80
2022/09/24 05:59:12;;;;;;;23.92;18.63;;;;;;;12.67;100.00;101216.47;5074321;28;20087;-79
2022/09/24 06:01:38;;;;;;;28.23;18.88;;;;;;;12.69;100.00;101221.38;5074302;28;20043;-79
2022/09/24 06:04:05;;;;;;;23.88;18.52;;;;;;;12.68;100.00;101215.28;5073797;28;20063;-81
2022/09/24 06:06:34;;;;;;;25.10;17.80;;;;;;;12.69;100.00;101221.38;5074105;28;20103;-81
2022/09/24 06:09:01;;;;;;;22.75;17.77;;;;;;;12.69;100.00;101216.78;5073390;28;20144;-81
2022/09/24 06:11:33;;;;;;;22.58;17.85;;;;;;;12.69;100.00;101219.44;5055794;28;20565;-81
2022/09/24 06:14:07;;;;;;;25.02;18.20;;;;;;;12.69;100.00;101224.03;5074432;28;20058;-81
2022/09/24 06:16:33;;;;;;;23.05;17.35;;;;;;;12.68;100.00;101220.63;5074183;28;20045;-81
2022/09/24 06:19:00;;;;;;;27.63;18.67;;;;;;;12.68;100.00;101220.63;5072618;28;20559;-81
2022/09/24 06:21:27;;;;;;;22.08;17.70;;;;;;;12.73;100.00;101221.97;5073921;28;20490;-82
2022/09/24 06:23:53;;;;;;;22.58;18.67;;;;;;;12.75;100.00;101226.88;5073657;28;20037;-81
2022/09/24 06:26:20;;;;;;;25.65;18.40;;;;;;;12.76;100.00;101234.44;5073974;28;20580;-81
2022/09/24 06:28:46;;;;;;;23.55;18.00;;;;;;;12.75;100.00;101230.28;5074378;28;20045;-79
2022/09/24 06:31:13;;;;;;;25.33;18.55;;;;;;;12.75;100.00;101229.53;5074276;28;20120;-80
2022/09/24 06:33:39;;;;;;;24.83;17.65;;;;;;;12.76;100.00;101239.78;5073249;28;20055;-80
2022/09/24 06:36:06;;;;;;;24.67;18.45;;;;;;;12.78;100.00;101240.09;5073862;28;20243;-81
2022/09/24 06:38:34;;;;;;;23.42;18.10;;;;;;;12.80;100.00;101237.69;5073999;28;20059;-80
2022/09/24 06:41:03;;;;;;;24.77;18.92;;;;;;;12.80;100.00;101240.38;5039326;28;20123;-81
2022/09/24 06:43:31;;;;;;;25.70;18.48;;;;;;;12.81;100.00;101233.84;5072013;28;20118;-82
2022/09/24 06:45:59;;;;;;;24.48;17.70;;;;;;;12.85;100.00;101237.13;5073520;28;20045;-80
2022/09/24 06:48:26;;;;;;;20.40;17.05;;;;;;;12.84;100.00;101243.66;5073506;28;20037;-80
2022/09/24 06:50:55;;;;;;;25.15;18.25;;;;;;;12.82;100.00;101250.63;5073748;28;20041;-79
2022/09/24 06:53:22;;;;;;;23.63;18.05;;;;;;;12.85;100.00;101250.47;5073533;28;20037;-79
2022/09/24 06:55:49;;;;;;;23.23;17.63;;;;;;;12.83;100.00;101247.50;5072203;28;20045;-79
2022/09/24 06:58:20;;;;;;;26.85;19.27;;;;;;;12.88;100.00;101251.53;5073650;28;20504;-79
2022/09/24 07:00:57;;;;;;;25.35;18.10;;;;;;;12.88;100.00;101249.59;5072893;28;20076;-79
2022/09/24 07:03:26;;;;;;;22.40;17.73;;;;;;;12.89;100.00;101253.00;5073633;28;20048;-79
2022/09/24 07:05:53;;;;;;;26.65;19.27;;;;;;;12.89;100.00;101253.00;5073302;28;20053;-79
2022/09/24 07:08:20;;;;;;;25.67;19.25;;;;;;;12.91;100.00;101258.66;5053790;28;20053;-79
2022/09/24 07:10:48;;;;;;;29.10;18.38;;;;;;;12.90;100.00;101260.59;5073071;28;20099;-78
2022/09/24 07:13:15;;;;;;;27.50;17.88;;;;;;;12.92;100.00;101260.16;5073107;28;20076;-80
2022/09/24 07:15:42;;;;;;;21.17;17.08;;;;;;;12.95;100.00;101270.69;5072330;28;20045;-79
2022/09/24 07:18:10;;;;;;;29.25;18.85;;;;;;;12.99;100.00;101271.31;5072663;28;20049;-78
2022/09/24 07:20:37;;;;;;;23.38;17.70;;;;;;;13.04;100.00;101264.63;5055173;28;20060;-80
2022/09/24 07:23:05;;;;;;;22.30;17.90;;;;;;;13.09;100.00;101268.66;5073797;28;20033;-79
2022/09/24 07:25:32;;;;;;;24.77;17.65;;;;;;;13.14;100.00;101265.38;5072560;28;20057;-80
2022/09/24 07:28:08;;;;;;;25.67;17.77;;;;;;;13.16;100.00;101271.81;5073796;28;20127;-82
2022/09/24 07:30:36;;;;;;;24.75;18.38;;;;;;;13.18;100.00;101268.69;5073334;28;20041;-86
2022/09/24 07:33:03;;;;;;;23.15;17.77;;;;;;;13.17;100.00;101267.94;5074390;28;20052;-83
2022/09/24 07:35:30;;;;;;;22.85;18.05;;;;;;;13.18;100.00;101271.38;5074675;28;20049;-89
2022/09/24 07:37:57;;;;;;;24.83;18.35;;;;;;;13.15;100.00;101272.97;5055489;28;20064;-90
2022/09/24 07:40:25;;;;;;;24.83;18.23;;;;;;;13.20;100.00;101276.97;5072999;28;20049;-81
2022/09/24 07:42:53;;;;;;;24.17;17.80;;;;;;;13.21;100.00;101281.16;5075833;28;20048;-87
2022/09/24 07:45:21;;;;;;;22.33;16.75;;;;;;;13.21;100.00;101281.88;5054994;28;20053;-88
2022/09/24 07:47:59;;;;;;;21.27;18.10;;;;;;;13.20;100.00;101283.06;5075057;28;20041;-86
2022/09/24 07:50:28;;;;;;;24.13;17.42;;;;;;;13.23;100.00;101284.84;5073686;28;20512;-83
2022/09/24 07:52:55;;;;;;;20.75;17.17;;;;;;;13.27;100.00;101284.72;5058679;28;20047;-87
2022/09/24 07:55:22;;;;;;;19.55;15.70;;;;;;;13.29;100.00;101287.69;5074468;28;20041;-86
2022/09/24 07:57:50;;;;;;;20.63;16.73;;;;;;;13.32;100.00;101289.47;5077763;28;20520;-88
2022/09/24 08:00:18;;;;;;;20.08;15.75;;;;;;;13.34;100.00;101287.09;5074657;28;20493;-88
2022/09/24 08:02:46;;;;;;;20.52;16.45;;;;;;;13.32;100.00;101286.81;5078270;28;20490;-88
2022/09/24 08:05:16;;;;;;;21.05;16.88;;;;;;;13.32;100.00;101290.22;5060233;28;20540;-89
2022/09/24 08:07:54;;;;;;;20.70;16.65;;;;;;;13.35;100.00;101292.00;5081753;28;20116;-92
2022/09/24 08:10:22;;;;;;;22.08;15.00;;;;;;;13.37;100.00;101299.59;5062834;28;20037;-87
2022/09/24 08:12:49;;;;;;;19.38;15.60;;;;;;;13.35;100.00;101291.25;5077910;28;20049;-89
2022/09/24 08:15:16;;;;;;;20.30;15.50;;;;;;;13.32;100.00;101295.56;5056653;28;20037;-89
2022/09/24 08:17:42;;;;;;;18.17;14.80;;;;;;;13.33;100.00;101299.72;5077699;28;20045;-90
2022/09/24 08:20:11;;;;;;;19.55;15.73;;;;;;;13.38;100.00;101301.06;5082986;28;20045;-90
2022/09/24 08:22:37;;;;;;;21.75;16.17;;;;;;;13.39;100.00;101301.81;5079029;28;20566;-87
2022/09/24 08:25:05;;;;;;;23.08;17.77;;;;;;;13.42;100.00;101303.59;5057572;28;20037;-89
2022/09/24 08:27:31;;;;;;;23.38;16.75;;;;;;;13.45;100.00;101300.03;5062400;28;20053;-90
2022/09/24 08:29:59;;;;;;;20.70;16.48;;;;;;;13.44;100.00;101307.31;5067043;28;20502;-90
2022/09/24 08:32:28;;;;;;;24.13;17.67;;;;;;;13.44;100.00;101306.59;5069019;28;20075;-91
2022/09/24 08:34:55;;;;;;;28.67;18.55;;;;;;;13.41;100.00;101308.22;5089838;28;20056;-93
2022/09/24 08:37:21;;;;;;;24.98;16.45;;;;;;;13.44;100.00;101312.69;5086168;28;20045;-93
2022/09/24 08:39:48;;;;;;;25.48;18.08;;;;;;;13.46;100.00;101317.56;5070892;28;20124;-92
2022/09/24 08:42:42;;;;;;;23.80;18.15;;;;;;;13.48;100.00;101315.19;5093512;28;20025;-92
2022/09/24 08:48:20;;;;;;;24.50;17.38;;;;;;;13.54;100.00;101321.44;5074190;28;20033;-91
2022/09/24 08:50:59;;;;;;;24.45;17.52;;;;;;;13.54;100.00;101322.19;5074696;28;20143;-91
2022/09/24 08:53:45;;;;;;;22.35;16.70;;;;;;;13.57;100.00;101331.25;5075089;28;20037;-91
2022/09/24 08:56:16;;;;;;;21.58;17.15;;;;;;;13.52;100.00;101335.28;5084471;28;20048;-91
2022/09/24 08:58:53;;;;;;;26.90;18.02;;;;;;;13.54;100.00;101334.81;5064567;28;20045;-91
2022/09/24 09:01:32;;;;;;;23.27;17.73;;;;;;;13.53;99.87;101330.66;5065773;28;20045;-90
2022/09/24 09:04:19;;;;;;;24.45;18.23;;;;;;;13.53;99.87;101336.75;5062606;28;20073;-91
2022/09/24 09:07:42;;;;;;;25.23;17.38;;;;;;;13.54;99.93;101338.25;5079206;28;20469;-90
2022/09/24 09:10:25;;;;;;;20.95;16.55;;;;;;;13.52;100.00;101345.97;5036062;28;20820;-88
2022/09/24 09:12:55;;;;;;;25.75;18.00;;;;;;;13.53;100.00;101354.72;5070038;28;20065;-88
2022/09/24 09:15:34;;;;;;;23.35;18.25;;;;;;;13.53;100.00;101354.72;5062279;28;20406;-87
2022/09/24 09:18:15;;;;;;;25.70;18.27;;;;;;;13.53;100.00;101350.13;5061236;28;20049;-87
2022/09/24 09:20:45;;;;;;;25.08;18.13;;;;;;;13.52;100.00;101355.94;5071953;28;20180;-90
2022/09/24 09:23:18;;;;;;;27.70;17.90;;;;;;;13.53;100.00;101357.41;5060515;28;20068;-86
2022/09/24 09:25:51;;;;;;;30.30;19.13;;;;;;;13.54;100.00;101358.91;5071125;28;20063;-86
2022/09/24 09:28:19;;;;;;;24.58;18.10;;;;;;;13.53;100.00;101360.09;5051472;28;20529;-87
2022/09/24 09:31:10;;;;;;;31.55;18.75;;;;;;;13.55;100.00;101358.47;5052629;28;20520;-88
2022/09/24 09:34:00;;;;;;;24.02;18.17;;;;;;;13.56;100.00;101369.91;5037691;28;20061;-88
2022/09/24 09:36:45;;;;;;;24.20;18.92;;;;;;;13.55;100.00;101363.81;5056522;28;20037;-88
2022/09/24 09:39:41;;;;;;;27.40;18.48;;;;;;;13.58;100.00;101372.88;5049064;28;20045;-87
2022/09/24 09:42:26;;;;;;;24.80;17.83;;;;;;;13.56;100.00;101376.00;5076755;28;20056;-88
2022/09/24 09:44:53;;;;;;;26.52;19.35;;;;;;;13.59;100.00;101371.69;5076602;28;20527;-84
2022/09/24 09:47:41;;;;;;;27.33;19.95;;;;;;;13.59;99.98;101372.44;5075659;28;20063;-90
2022/09/24 09:50:37;;;;;;;28.60;19.42;;;;;;;13.61;100.00;101372.69;5075635;28;20045;-88
2022/09/24 09:53:04;;;;;;;23.92;18.40;;;;;;;13.63;100.00;101373.00;5058433;28;20056;-88
2022/09/24 09:55:36;;;;;;;28.75;19.60;;;;;;;13.65;100.00;101370.63;5074877;28;20776;-88
2022/09/24 09:58:15;;;;;;;23.73;18.30;;;;;;;13.68;100.00;101377.03;5079463;28;20115;-87
2022/09/24 10:00:45;;;;;;;26.55;18.52;;;;;;;13.71;100.00;101373.47;5056660;28;20521;-82
2022/09/24 10:03:25;;;;;;;24.95;18.88;;;;;;;13.72;100.00;101379.56;5057681;28;20055;-80
2022/09/24 10:06:04;;;;;;;26.23;21.15;;;;;;;13.72;100.00;101380.31;5076070;28;20052;-87
2022/09/24 10:08:30;;;;;;;27.92;18.27;;;;;;;13.72;99.23;101379.56;5076916;28;20140;-86
2022/09/24 10:10:59;;;;;;;26.75;17.23;;;;;;;13.69;99.77;101383.88;5060599;28;20049;-87
2022/09/24 10:13:27;;;;;;;24.23;17.95;;;;;;;13.66;99.77;101382.81;5077587;28;20037;-86
2022/09/24 10:15:57;;;;;;;24.38;17.45;;;;;;;13.69;99.95;101383.88;5076688;28;20041;-83
2022/09/24 10:18:37;;;;;;;25.63;17.75;;;;;;;13.75;99.84;101386.69;5074480;28;20108;-82
2022/09/24 10:21:08;;;;;;;21.77;16.48;;;;;;;13.77;99.80;101381.63;5057015;28;20056;-91
2022/09/24 10:23:39;;;;;;;23.38;17.25;;;;;;;13.78;99.79;101375.09;5075849;28;20084;-88
2022/09/24 10:26:07;;;;;;;17.42;14.70;;;;;;;13.82;99.66;101379.13;5040725;28;20057;-78
2022/09/24 10:31:29;;;;;;;21.52;16.88;;;;;;;13.88;99.81;101374.66;5056472;28;20051;-78
2022/09/24 10:33:57;;;;;;;20.40;16.25;;;;;;;13.91;99.54;101381.06;5075183;28;20045;-81
2022/09/24 10:36:27;;;;;;;21.38;17.08;;;;;;;13.88;99.67;101387.31;5074617;28;20048;-83
2022/09/24 10:39:23;;;;;;;20.25;15.05;;;;;;;13.89;99.25;101394.16;5056608;28;20081;-84
2022/09/24 10:41:53;;;;;;;19.45;14.85;;;;;;;13.87;99.48;101389.22;5036250;28;20455;-84
2022/09/24 10:44:20;;;;;;;17.80;14.55;;;;;;;13.84;99.25;101394.72;5073600;28;20049;-88
2022/09/24 10:46:56;;;;;;;23.15;15.27;;;;;;;13.83;99.26;101385.22;5076551;28;20128;-91
2022/09/24 10:49:46;;;;;;;16.20;13.45;;;;;;;13.78;99.11;101388.47;5076006;28;20520;-82
2022/09/24 10:52:31;;;;;;;25.15;16.02;;;;;;;13.82;99.31;101392.50;5076197;28;20631;-87
2022/09/24 10:55:15;;;;;;;22.88;14.38;;;;;;;13.84;99.39;101398.16;5075380;28;20445;-85
2022/09/24 10:57:58;;;;;;;15.68;13.30;;;;;;;13.83;99.52;101396.66;5059546;28;20513;-87
2022/09/24 11:01:04;;;;;;;18.80;14.60;;;;;;;13.80;99.55;101394.88;5075724;28;20513;-86
2022/09/24 11:03:42;;;;;;;15.68;13.90;;;;;;;13.82;99.65;101399.78;4994403;28;20546;-86
2022/09/24 11:06:41;;;;;;;19.40;14.68;;;;;;;13.87;99.77;101404.53;4993469;28;20484;-85
2022/09/24 11:09:30;;;;;;;22.27;14.00;;;;;;;13.89;100.00;101407.53;4993322;28;20047;-86
2022/09/24 11:12:15;;;;;;;17.35;13.25;;;;;;;13.91;99.67;101407.81;4994321;28;20059;-87
2022/09/24 11:15:19;;;;;;;16.40;14.25;;;;;;;13.96;99.83;101407.22;4995227;28;20219;-88
2022/09/24 11:18:00;;;;;;;17.60;13.63;;;;;;;14.00;100.00;101413.91;4976777;28;20054;-90
2022/09/24 11:20:36;;;;;;;14.30;12.43;;;;;;;14.03;99.95;101412.25;4994426;28;20496;-88
2022/09/24 11:23:11;;;;;;;30.52;19.50;;;;;;;14.05;99.54;101406.47;4976396;28;20046;-89
2022/09/24 11:25:53;;;;;;;18.55;13.40;;;;;;;14.05;99.78;101404.53;4992828;28;20055;-89
2022/09/24 11:28:38;;;;;;;;;;;;;;;14.12;99.59;101414.19;4994271;28;20053;-89
2022/09/24 11:31:28;;;;;;;15.00;10.10;;;;;;;14.13;99.19;101408.41;4994365;28;19934;-88
2022/09/24 11:34:03;;;;;;;16.05;12.13;;;;;;;14.13;99.36;101405.72;4977757;28;20051;-90